createdAt,value
2022-08-29T00:00:47.411Z,100775.22
2022-08-29T00:03:14.021Z,100765.72
2022-08-29T00:05:42.462Z,100762.63
2022-08-29T00:08:09.407Z,100765.78
2022-08-29T00:10:37.886Z,100769.00
2022-08-29T00:13:06.741Z,100768.41
2022-08-29T00:15:44.637Z,100765.41
2022-08-29T00:18:14.097Z,100756.63
2022-08-29T00:20:41.869Z,100756.81
2022-08-29T00:23:09.128Z,100761.47
2022-08-29T00:25:35.988Z,100764.69
2022-08-29T00:28:02.948Z,100765.59
2022-08-29T00:30:30.053Z,100763.25
2022-08-29T00:32:56.714Z,100758.41
2022-08-29T00:35:27.426Z,100768.25
2022-08-29T00:37:54.951Z,100760.34
2022-08-29T00:40:29.664Z,100771.66
2022-08-29T00:42:56.975Z,100766.31
2022-08-29T00:45:24.567Z,100768.56
2022-08-29T00:48:02.323Z,100766.63
2022-08-29T00:50:33.954Z,100769.97
2022-08-29T00:53:04.645Z,100772.50
2022-08-29T00:55:35.290Z,100775.44
2022-08-29T00:58:06.147Z,100780.03
2022-08-29T01:00:33.121Z,100772.63
2022-08-29T01:02:59.933Z,100768.97
2022-08-29T01:05:27.082Z,100778.72
2022-08-29T01:07:54.542Z,100779.72
2022-08-29T01:10:40.547Z,100779.03
2022-08-29T01:13:09.277Z,100781.78
2022-08-29T01:15:37.127Z,100778.44
2022-08-29T01:18:06.199Z,100783.38
2022-08-29T01:20:49.938Z,100786.63
2022-08-29T01:23:23.878Z,100790.06
2022-08-29T01:25:51.545Z,100788.44
2022-08-29T01:28:33.065Z,100795.44
2022-08-29T01:31:09.354Z,100786.22
2022-08-29T01:33:58.179Z,100792.91
2022-08-29T01:36:32.336Z,100790.97
2022-08-29T01:39:00.129Z,100795.13
2022-08-29T01:41:28.180Z,100795.34
2022-08-29T01:43:56.467Z,100790.78
2022-08-29T01:46:27.265Z,100802.25
2022-08-29T01:48:54.279Z,100788.53
2022-08-29T01:51:21.437Z,100786.88
2022-08-29T01:53:48.202Z,100787.13
2022-08-29T01:56:17.187Z,100797.34
2022-08-29T01:58:45.415Z,100795.28
2022-08-29T02:01:15.421Z,100794.84
2022-08-29T02:03:42.504Z,100796.38
2022-08-29T02:06:10.373Z,100806.00
2022-08-29T02:08:38.644Z,100808.81
2022-08-29T02:11:09.928Z,100803.56
2022-08-29T02:13:40.265Z,100803.94
2022-08-29T02:16:07.563Z,100799.28
2022-08-29T02:18:34.610Z,100798.63
2022-08-29T02:21:01.792Z,100800.63
2022-08-29T02:23:31.242Z,100802.22
2022-08-29T02:25:58.601Z,100814.50
2022-08-29T02:28:25.375Z,100808.72
2022-08-29T02:30:56.658Z,100815.44
2022-08-29T02:33:24.422Z,100814.34
2022-08-29T02:35:52.052Z,100810.59
2022-08-29T02:38:19.440Z,100816.66
2022-08-29T02:40:47.655Z,100811.75
2022-08-29T02:43:17.386Z,100810.59
2022-08-29T02:45:44.189Z,100808.94
2022-08-29T02:48:12.031Z,100811.19
2022-08-29T02:50:45.233Z,100812.31
2022-08-29T02:53:13.868Z,100812.84
2022-08-29T02:55:40.661Z,100806.56
2022-08-29T02:58:07.860Z,100807.97
2022-08-29T03:00:35.902Z,100811.00
2022-08-29T03:03:04.686Z,100807.00
2022-08-29T03:05:37.107Z,100818.06
2022-08-29T03:08:07.813Z,100817.66
2022-08-29T03:10:35.644Z,100816.81
2022-08-29T03:13:05.889Z,100815.94
2022-08-29T03:15:32.890Z,100822.16
2022-08-29T03:17:59.613Z,100822.75
2022-08-29T03:20:27.320Z,100811.28
2022-08-29T03:22:54.692Z,100814.38
2022-08-29T03:25:22.651Z,100808.31
2022-08-29T03:27:49.494Z,100809.94
2022-08-29T03:30:17.463Z,100805.69
2022-08-29T03:32:44.802Z,100809.44
2022-08-29T03:35:13.308Z,100805.59
2022-08-29T03:37:40.450Z,100804.41
2022-08-29T03:40:08.561Z,100807.38
2022-08-29T03:42:35.462Z,100804.94
2022-08-29T03:45:05.336Z,100813.56
2022-08-29T03:47:32.227Z,100805.16
2022-08-29T03:49:58.913Z,100803.47
2022-08-29T03:52:25.560Z,100811.78
2022-08-29T03:54:52.428Z,100804.88
2022-08-29T03:57:19.136Z,100811.88
2022-08-29T03:59:46.087Z,100809.19
2022-08-29T04:02:13.005Z,100804.41
2022-08-29T04:04:58.160Z,100800.38
2022-08-29T04:07:25.012Z,100802.31
2022-08-29T04:09:51.653Z,100802.06
2022-08-29T04:12:18.894Z,100797.66
2022-08-29T04:14:45.577Z,100799.75
2022-08-29T04:17:13.089Z,100803.22
2022-08-29T04:19:39.999Z,100790.59
2022-08-29T04:22:07.995Z,100800.59
2022-08-29T04:24:35.278Z,100808.16
2022-08-29T04:27:02.116Z,100805.75
2022-08-29T04:29:29.259Z,100806.84
2022-08-29T04:31:55.969Z,100798.06
2022-08-29T04:34:23.041Z,100812.06
2022-08-29T04:36:49.759Z,100811.78
2022-08-29T04:39:16.628Z,100821.09
2022-08-29T04:41:43.648Z,100815.59
2022-08-29T04:44:11.947Z,100823.94
2022-08-29T04:46:39.446Z,100825.22
2022-08-29T04:49:06.277Z,100829.38
2022-08-29T04:51:34.716Z,100822.59
2022-08-29T04:54:01.724Z,100820.75
2022-08-29T04:56:28.429Z,100829.75
2022-08-29T04:58:56.436Z,100829.47
2022-08-29T05:01:24.320Z,100826.59
2022-08-29T05:03:54.226Z,100834.75
2022-08-29T05:06:22.945Z,100837.47
2022-08-29T05:08:59.083Z,100839.03
2022-08-29T05:11:28.849Z,100843.44
2022-08-29T05:13:55.619Z,100840.66
2022-08-29T05:16:22.357Z,100844.78
2022-08-29T05:18:49.301Z,100839.91
2022-08-29T05:21:42.582Z,100843.88
2022-08-29T05:24:11.720Z,100848.75
2022-08-29T05:26:43.051Z,100850.75
2022-08-29T05:29:12.078Z,100853.38
2022-08-29T05:31:41.946Z,100852.72
2022-08-29T05:34:16.287Z,100851.59
2022-08-29T05:36:57.259Z,100849.66
2022-08-29T05:39:23.970Z,100849.28
2022-08-29T05:41:50.611Z,100849.19
2022-08-29T05:44:17.309Z,100849.75
2022-08-29T05:46:44.109Z,100845.25
2022-08-29T05:49:10.801Z,100855.38
2022-08-29T05:51:39.784Z,100855.94
2022-08-29T05:54:07.276Z,100856.25
2022-08-29T05:56:34.021Z,100853.44
2022-08-29T05:59:00.869Z,100857.56
2022-08-29T06:01:32.702Z,100856.91
2022-08-29T06:04:00.832Z,100862.59
2022-08-29T06:06:29.343Z,100868.94
2022-08-29T06:08:57.490Z,100867.22
2022-08-29T06:11:29.262Z,100860.56
2022-08-29T06:13:56.532Z,100863.22
2022-08-29T06:16:25.236Z,100864.72
2022-08-29T06:18:52.395Z,100870.25
2022-08-29T06:21:19.971Z,100867.66
2022-08-29T06:23:47.626Z,100864.56
2022-08-29T06:26:15.822Z,100860.50
2022-08-29T06:28:47.522Z,100856.81
2022-08-29T06:31:21.461Z,100857.41
2022-08-29T06:33:51.692Z,100875.63
2022-08-29T06:36:18.688Z,100876.38
2022-08-29T06:38:45.545Z,100878.50
2022-08-29T06:41:14.301Z,100876.28
2022-08-29T06:43:42.024Z,100873.91
2022-08-29T06:46:09.533Z,100878.41
2022-08-29T06:48:36.246Z,100880.38
2022-08-29T06:51:03.821Z,100884.28
2022-08-29T06:53:32.511Z,100881.75
2022-08-29T06:56:05.357Z,100884.41
2022-08-29T06:58:32.883Z,100888.06
2022-08-29T07:01:04.736Z,100889.84
2022-08-29T07:03:31.429Z,100892.78
2022-08-29T07:05:58.127Z,100887.16
2022-08-29T07:08:24.924Z,100887.88
2022-08-29T07:10:52.381Z,100888.41
2022-08-29T07:13:18.991Z,100894.16
2022-08-29T07:15:45.866Z,100890.56
2022-08-29T07:18:12.661Z,100891.38
2022-08-29T07:20:40.084Z,100899.25
2022-08-29T07:23:08.126Z,100899.59
2022-08-29T07:25:36.017Z,100895.72
2022-08-29T07:28:03.541Z,100896.69
2022-08-29T07:30:31.418Z,100899.25
2022-08-29T07:32:58.591Z,100893.28
2022-08-29T07:35:30.417Z,100896.69
2022-08-29T07:38:00.977Z,100898.78
2022-08-29T07:40:28.254Z,100903.44
2022-08-29T07:42:54.927Z,100898.59
2022-08-29T07:45:21.762Z,100899.41
2022-08-29T07:47:48.475Z,100904.63
2022-08-29T07:50:15.223Z,100907.19
2022-08-29T07:52:42.061Z,100905.91
2022-08-29T07:55:10.184Z,100897.09
2022-08-29T07:57:40.009Z,100905.50
2022-08-29T08:00:12.215Z,100904.06
2022-08-29T08:02:41.658Z,100903.88
2022-08-29T08:05:09.056Z,100905.31
2022-08-29T08:07:36.694Z,100910.53
2022-08-29T08:10:07.514Z,100908.09
2022-08-29T08:12:34.369Z,100907.56
2022-08-29T08:15:08.269Z,100909.75
2022-08-29T08:17:35.204Z,100912.47
2022-08-29T08:20:04.198Z,100912.88
2022-08-29T08:22:30.905Z,100915.03
2022-08-29T08:24:57.517Z,100908.59
2022-08-29T08:27:24.309Z,100912.47
2022-08-29T08:29:51.159Z,100914.25
2022-08-29T08:32:19.939Z,100906.97
2022-08-29T08:34:47.186Z,100906.97
2022-08-29T08:37:19.453Z,100904.22
2022-08-29T08:39:58.808Z,100908.91
2022-08-29T08:42:31.510Z,100912.19
2022-08-29T08:45:11.344Z,100902.31
2022-08-29T08:47:47.589Z,100912.84
2022-08-29T08:50:20.590Z,100914.97
2022-08-29T08:52:58.638Z,100907.19
2022-08-29T08:55:47.520Z,100907.53
2022-08-29T08:58:34.574Z,100909.69
2022-08-29T09:01:14.292Z,100908.97
2022-08-29T09:03:50.221Z,100903.66
2022-08-29T09:06:35.787Z,100907.91
2022-08-29T09:09:14.502Z,100913.09
2022-08-29T09:12:05.850Z,100913.09
2022-08-29T09:15:00.395Z,100915.00
2022-08-29T09:17:41.306Z,100923.16
2022-08-29T09:20:16.905Z,100920.75
2022-08-29T09:22:52.344Z,100929.09
2022-08-29T09:25:18.983Z,100937.84
2022-08-29T09:27:45.711Z,100935.75
2022-08-29T09:30:20.545Z,100930.75
2022-08-29T09:33:00.682Z,100921.28
2022-08-29T09:35:48.841Z,100918.22
2022-08-29T09:38:18.473Z,100926.13
2022-08-29T09:41:04.001Z,100917.59
2022-08-29T09:43:44.235Z,100913.06
2022-08-29T09:46:11.189Z,100923.72
2022-08-29T09:48:43.864Z,100922.91
2022-08-29T09:51:16.259Z,100920.47
2022-08-29T09:53:43.623Z,100917.59
2022-08-29T09:56:18.992Z,100924.56
2022-08-29T09:58:56.284Z,100910.97
2022-08-29T10:01:27.605Z,100910.47
2022-08-29T10:04:02.273Z,100910.63
2022-08-29T10:06:33.203Z,100910.63
2022-08-29T10:09:10.405Z,100908.25
2022-08-29T10:11:56.577Z,100910.81
2022-08-29T10:14:34.365Z,100908.88
2022-08-29T10:17:25.388Z,100911.59
2022-08-29T10:19:52.141Z,100905.44
2022-08-29T10:22:30.699Z,100911.63
2022-08-29T10:25:13.414Z,100913.56
2022-08-29T10:28:08.409Z,100898.53
2022-08-29T10:31:00.445Z,100903.13
2022-08-29T10:33:54.898Z,100897.47
2022-08-29T10:36:29.276Z,100891.19
2022-08-29T10:39:17.058Z,100882.09
2022-08-29T10:42:01.242Z,100889.69
2022-08-29T10:44:48.209Z,100885.81
2022-08-29T10:47:36.744Z,100880.47
2022-08-29T10:50:43.074Z,100884.44
2022-08-29T10:53:31.373Z,100881.41
2022-08-29T10:56:06.446Z,100869.41
2022-08-29T10:58:48.952Z,100871.50
2022-08-29T11:01:29.560Z,100867.59
2022-08-29T11:04:05.297Z,100862.13
2022-08-29T11:06:44.619Z,100859.81
2022-08-29T11:09:22.120Z,100861.34
2022-08-29T11:12:06.351Z,100860.41
2022-08-29T11:14:46.189Z,100839.28
2022-08-29T11:17:16.465Z,100840.94
2022-08-29T11:19:59.317Z,100840.66
2022-08-29T11:23:05.721Z,100837.03
2022-08-29T11:25:36.481Z,100835.41
2022-08-29T11:28:34.721Z,100825.28
2022-08-29T11:31:12.312Z,100827.41
2022-08-29T11:33:57.459Z,100831.63
2022-08-29T11:36:49.114Z,100827.50
2022-08-29T11:39:24.840Z,100815.13
2022-08-29T11:41:58.425Z,100822.81
2022-08-29T11:44:37.356Z,100816.78
2022-08-29T11:47:31.960Z,100813.91
2022-08-29T11:50:16.063Z,100814.28
2022-08-29T11:52:58.576Z,100822.22
2022-08-29T11:55:39.350Z,100810.25
2022-08-29T11:58:15.278Z,100814.38
2022-08-29T12:00:51.632Z,100807.75
2022-08-29T12:03:34.096Z,100795.88
2022-08-29T12:06:04.871Z,100801.91
2022-08-29T12:08:48.053Z,100795.13
2022-08-29T12:11:14.827Z,100792.19
2022-08-29T12:13:47.998Z,100792.72
2022-08-29T12:16:18.210Z,100790.84
2022-08-29T12:18:51.105Z,100799.69
2022-08-29T12:21:46.981Z,100793.81
2022-08-29T12:24:27.954Z,100789.13
2022-08-29T12:26:55.055Z,100790.88
2022-08-29T12:29:31.129Z,100789.00
2022-08-29T12:32:23.027Z,100783.53
2022-08-29T12:35:23.174Z,100780.28
2022-08-29T12:38:18.363Z,100776.94
2022-08-29T12:41:08.833Z,100774.19
2022-08-29T12:43:45.499Z,100761.50
2022-08-29T12:46:26.026Z,100757.94
2022-08-29T12:49:02.832Z,100770.44
2022-08-29T12:51:41.732Z,100754.97
2022-08-29T12:54:11.433Z,100751.50
2022-08-29T12:56:43.068Z,100747.00
2022-08-29T12:59:18.023Z,100744.91
2022-08-29T13:01:49.013Z,100748.84
2022-08-29T13:04:19.771Z,100743.09
2022-08-29T13:07:02.048Z,100727.78
2022-08-29T13:09:31.707Z,100736.91
2022-08-29T13:12:25.165Z,100734.91
2022-08-29T13:14:54.854Z,100727.13
2022-08-29T13:17:28.129Z,100734.38
2022-08-29T13:20:32.434Z,100727.41
2022-08-29T13:23:25.993Z,100727.34
2022-08-29T13:26:02.433Z,100722.09
2022-08-29T13:28:44.877Z,100720.72
2022-08-29T13:31:11.591Z,100723.38
2022-08-29T13:34:00.268Z,100717.75
2022-08-29T13:36:26.868Z,100718.34
2022-08-29T13:39:15.380Z,100728.25
2022-08-29T13:41:46.421Z,100728.59
2022-08-29T13:44:22.001Z,100722.16
2022-08-29T13:46:52.145Z,100720.41
2022-08-29T13:49:24.514Z,100718.94
2022-08-29T13:51:51.543Z,100727.53
2022-08-29T13:54:18.827Z,100726.28
2022-08-29T13:56:52.303Z,100718.22
2022-08-29T13:59:25.884Z,100708.31
2022-08-29T14:02:10.225Z,100705.31
2022-08-29T14:04:39.836Z,100697.78
2022-08-29T14:07:09.209Z,100697.59
2022-08-29T14:09:39.395Z,100701.06
2022-08-29T14:12:06.869Z,100701.91
2022-08-29T14:14:33.637Z,100700.56
2022-08-29T14:17:00.649Z,100694.44
2022-08-29T14:19:29.195Z,100691.41
2022-08-29T14:21:59.106Z,100693.50
2022-08-29T14:24:28.953Z,100691.41
2022-08-29T14:26:59.510Z,100694.88
2022-08-29T14:29:33.819Z,100690.56
2022-08-29T14:32:03.030Z,100689.69
2022-08-29T14:34:32.771Z,100691.13
2022-08-29T14:37:01.244Z,100677.44
2022-08-29T14:39:28.553Z,100676.59
2022-08-29T14:41:55.764Z,100675.13
2022-08-29T14:44:23.448Z,100670.88
2022-08-29T14:46:51.398Z,100671.38
2022-08-29T14:49:18.961Z,100669.97
2022-08-29T14:51:45.656Z,100669.88
2022-08-29T14:54:13.151Z,100669.31
2022-08-29T14:56:50.045Z,100661.28
2022-08-29T14:59:18.953Z,100664.69
2022-08-29T15:01:49.918Z,100662.75
2022-08-29T15:04:21.817Z,100664.06
2022-08-29T15:07:02.633Z,100662.16
2022-08-29T15:09:29.339Z,100657.25
2022-08-29T15:11:56.042Z,100653.00
2022-08-29T15:14:23.101Z,100647.81
2022-08-29T15:16:49.754Z,100651.88
2022-08-29T15:22:05.416Z,100645.78
2022-08-29T15:24:32.854Z,100648.91
2022-08-29T15:26:59.870Z,100640.69
2022-08-29T15:29:27.586Z,100641.44
2022-08-29T15:31:57.195Z,100645.69
2022-08-29T15:34:25.899Z,100638.91
2022-08-29T15:36:54.240Z,100642.63
2022-08-29T15:39:21.997Z,100638.13
2022-08-29T15:41:48.658Z,100624.59
2022-08-29T15:44:15.733Z,100621.47
2022-08-29T15:46:47.895Z,100631.72
2022-08-29T15:49:19.359Z,100625.31
2022-08-29T15:51:46.498Z,100622.56
2022-08-29T15:54:14.296Z,100622.88
2022-08-29T15:56:41.548Z,100630.94
2022-08-29T15:59:10.769Z,100627.53
2022-08-29T16:01:52.200Z,100638.53
2022-08-29T16:04:22.189Z,100633.88
2022-08-29T16:06:50.162Z,100629.41
2022-08-29T16:09:17.538Z,100626.94
2022-08-29T16:11:45.352Z,100627.53
2022-08-29T16:16:59.506Z,100624.25
2022-08-29T16:19:26.123Z,100620.22
2022-08-29T16:21:53.718Z,100616.66
2022-08-29T16:24:21.801Z,100619.41
2022-08-29T16:26:48.742Z,100618.50
2022-08-29T16:29:15.457Z,100619.03
2022-08-29T16:31:53.953Z,100606.09
2022-08-29T16:34:22.164Z,100609.66
2022-08-29T16:36:48.968Z,100609.19
2022-08-29T16:39:15.836Z,100609.28
2022-08-29T16:41:45.217Z,100618.47
2022-08-29T16:44:11.861Z,100614.09
2022-08-29T16:46:38.588Z,100614.81
2022-08-29T16:49:05.616Z,100611.38
2022-08-29T16:51:32.276Z,100614.94
2022-08-29T16:54:02.468Z,100611.66
2022-08-29T16:56:29.180Z,100614.28
2022-08-29T16:58:59.443Z,100617.63
2022-08-29T17:01:34.423Z,100609.34
2022-08-29T17:04:02.749Z,100611.09
2022-08-29T17:06:31.124Z,100602.03
2022-08-29T17:08:58.711Z,100613.84
2022-08-29T17:11:25.811Z,100608.22
2022-08-29T17:13:54.076Z,100608.00
2022-08-29T17:16:21.682Z,100603.31
2022-08-29T17:18:49.145Z,100599.28
2022-08-29T17:21:16.469Z,100606.78
2022-08-29T17:23:44.147Z,100613.00
2022-08-29T17:26:13.060Z,100617.56
2022-08-29T17:28:40.083Z,100616.44
2022-08-29T17:31:07.606Z,100617.13
2022-08-29T17:33:34.460Z,100622.19
2022-08-29T17:36:01.447Z,100617.25
2022-08-29T17:38:28.524Z,100617.81
2022-08-29T17:40:59.193Z,100624.03
2022-08-29T17:43:27.353Z,100628.16
2022-08-29T17:45:54.858Z,100631.72
2022-08-29T17:48:22.522Z,100629.19
2022-08-29T17:50:50.027Z,100633.66
2022-08-29T17:53:18.651Z,100625.59
2022-08-29T17:55:46.250Z,100637.69
2022-08-29T17:58:14.538Z,100638.38
2022-08-29T18:00:41.235Z,100638.00
2022-08-29T18:03:10.434Z,100640.88
2022-08-29T18:05:37.945Z,100640.63
2022-08-29T18:08:05.959Z,100643.28
2022-08-29T18:10:32.857Z,100639.84
2022-08-29T18:12:59.767Z,100638.44
2022-08-29T18:15:26.516Z,100645.78
2022-08-29T18:17:54.201Z,100647.47
2022-08-29T18:20:23.310Z,100656.09
2022-08-29T18:22:50.670Z,100660.38
2022-08-29T18:25:22.210Z,100660.00
2022-08-29T18:27:50.328Z,100658.44
2022-08-29T18:30:17.305Z,100656.97
2022-08-29T18:32:44.083Z,100661.06
2022-08-29T18:35:11.069Z,100660.84
2022-08-29T18:37:37.819Z,100668.63
2022-08-29T18:40:08.078Z,100673.19
2022-08-29T18:42:40.904Z,100673.19
2022-08-29T18:45:08.305Z,100672.59
2022-08-29T18:47:35.112Z,100682.69
2022-08-29T18:50:20.781Z,100675.56
2022-08-29T18:52:52.729Z,100689.34
2022-08-29T18:55:19.766Z,100680.47
2022-08-29T18:57:48.133Z,100688.78
2022-08-29T19:00:16.187Z,100691.00
2022-08-29T19:02:43.564Z,100697.38
2022-08-29T19:05:11.051Z,100696.78
2022-08-29T19:07:38.719Z,100697.81
2022-08-29T19:10:06.805Z,100705.44
2022-08-29T19:12:33.740Z,100694.72
2022-08-29T19:15:00.524Z,100705.63
2022-08-29T19:17:27.221Z,100705.84
2022-08-29T19:20:12.579Z,100707.00
2022-08-29T19:22:39.442Z,100715.28
2022-08-29T19:25:08.599Z,100720.00
2022-08-29T19:27:43.669Z,100714.78
2022-08-29T19:30:14.750Z,100717.25
2022-08-29T19:32:41.451Z,100719.66
2022-08-29T19:35:12.884Z,100720.00
2022-08-29T19:37:41.944Z,100720.16
2022-08-29T19:40:10.951Z,100723.63
2022-08-29T19:42:38.506Z,100724.84
2022-08-29T19:45:08.161Z,100726.53
2022-08-29T19:47:35.032Z,100732.03
2022-08-29T19:50:02.367Z,100725.25
2022-08-29T19:52:31.408Z,100723.16
2022-08-29T19:55:00.140Z,100722.84
2022-08-29T19:57:28.079Z,100722.63
2022-08-29T19:59:54.814Z,100721.50
2022-08-29T20:02:21.764Z,100727.53
2022-08-29T20:04:48.613Z,100726.75
2022-08-29T20:07:15.260Z,100727.91
2022-08-29T20:09:42.549Z,100732.13
2022-08-29T20:12:09.931Z,100732.13
2022-08-29T20:14:37.342Z,100739.44
2022-08-29T20:17:09.538Z,100732.66
2022-08-29T20:19:37.492Z,100739.25
2022-08-29T20:22:07.211Z,100731.31
2022-08-29T20:24:34.661Z,100740.75
2022-08-29T20:27:02.892Z,100734.31
2022-08-29T20:29:30.391Z,100733.63
2022-08-29T20:31:58.874Z,100733.97
2022-08-29T20:34:29.657Z,100728.00
2022-08-29T20:37:08.963Z,100729.56
2022-08-29T20:39:49.176Z,100728.34
2022-08-29T20:42:20.277Z,100731.88
2022-08-29T20:44:48.401Z,100728.34
2022-08-29T20:47:18.258Z,100730.31
2022-08-29T20:49:46.691Z,100736.28
2022-08-29T20:52:17.546Z,100733.72
2022-08-29T20:54:46.205Z,100731.16
2022-08-29T20:57:14.853Z,100733.06
2022-08-29T20:59:42.804Z,100735.34
2022-08-29T21:02:10.469Z,100737.47
2022-08-29T21:04:56.261Z,100740.88
2022-08-29T21:07:23.208Z,100738.13
2022-08-29T21:09:50.370Z,100748.16
2022-08-29T21:12:18.806Z,100740.38
2022-08-29T21:14:46.243Z,100747.97
2022-08-29T21:17:13.680Z,100748.78
2022-08-29T21:19:41.368Z,100748.66
2022-08-29T21:22:09.376Z,100753.50
2022-08-29T21:24:36.481Z,100754.78
2022-08-29T21:27:03.181Z,100748.50
2022-08-29T21:29:29.937Z,100753.81
2022-08-29T21:31:57.869Z,100749.31
2022-08-29T21:34:25.235Z,100748.66
2022-08-29T21:36:52.035Z,100741.88
2022-08-29T21:39:28.607Z,100753.19
2022-08-29T21:41:57.179Z,100746.06
2022-08-29T21:44:23.879Z,100746.72
2022-08-29T21:46:50.701Z,100741.59
2022-08-29T21:49:21.674Z,100741.22
2022-08-29T21:51:48.823Z,100747.84
2022-08-29T21:54:17.274Z,100753.81
2022-08-29T21:56:45.021Z,100744.44
2022-08-29T21:59:14.057Z,100750.78
2022-08-29T22:01:41.540Z,100761.09
2022-08-29T22:04:11.263Z,100749.84
2022-08-29T22:06:46.776Z,100751.44
2022-08-29T22:09:19.479Z,100750.66
2022-08-29T22:11:48.710Z,100750.66
2022-08-29T22:14:15.387Z,100754.53
2022-08-29T22:16:42.132Z,100749.38
2022-08-29T22:19:12.022Z,100752.59
2022-08-29T22:21:47.035Z,100751.31
2022-08-29T22:24:15.216Z,100747.75
2022-08-29T22:26:42.651Z,100749.56
2022-08-29T22:29:11.783Z,100754.06
2022-08-29T22:31:42.275Z,100764.56
2022-08-29T22:34:11.059Z,100757.94
2022-08-29T22:36:37.748Z,100765.56
2022-08-29T22:39:05.373Z,100770.06
2022-08-29T22:41:32.368Z,100766.50
2022-08-29T22:46:47.896Z,100764.75
2022-08-29T22:49:14.642Z,100763.75
2022-08-29T22:51:41.299Z,100755.53
2022-08-29T22:54:26.635Z,100762.63
2022-08-29T22:56:54.493Z,100763.31
2022-08-29T22:59:21.994Z,100760.88
2022-08-29T23:01:49.228Z,100756.16
2022-08-29T23:04:16.339Z,100761.38
2022-08-29T23:06:43.275Z,100756.50
2022-08-29T23:09:10.465Z,100756.63
2022-08-29T23:11:37.223Z,100757.44
2022-08-29T23:14:04.425Z,100751.97
2022-08-29T23:16:32.937Z,100750.66
2022-08-29T23:19:03.496Z,100740.97
2022-08-29T23:21:31.974Z,100750.03
2022-08-29T23:23:59.179Z,100747.78
2022-08-29T23:26:26.977Z,100753.41
2022-08-29T23:28:54.013Z,100753.72
2022-08-29T23:31:22.621Z,100749.84
2022-08-29T23:33:49.470Z,100753.88
2022-08-29T23:36:16.220Z,100757.44
2022-08-29T23:38:43.357Z,100760.34
2022-08-29T23:41:10.858Z,100755.66
2022-08-29T23:43:37.575Z,100751.44
2022-08-29T23:46:05.046Z,100756.00
2022-08-29T23:48:33.218Z,100756.97
2022-08-29T23:51:04.122Z,100755.81
2022-08-29T23:53:30.897Z,100754.69
2022-08-29T23:55:57.539Z,100751.44
2022-08-29T23:58:24.138Z,100749.19
